sensor_id;sensor_type;location;lat;lon;timestamp;P1;durP1;ratioP1;P2;durP2;ratioP2
75437;SDS011;64015;49.392;15.582;2023-03-23T00:01:04;11.25;;;5.40;;
75437;SDS011;64015;49.392;15.582;2023-03-23T00:03:31;11.15;;;5.43;;
75437;SDS011;64015;49.392;15.582;2023-03-23T00:05:58;11.23;;;4.85;;
75437;SDS011;64015;49.392;15.582;2023-03-23T00:08:34;10.27;;;4.78;;
75437;SDS011;64015;49.392;15.582;2023-03-23T00:11:13;6.63;;;4.15;;
75437;SDS011;64015;49.392;15.582;2023-03-23T00:13:48;7.57;;;3.67;;
75437;SDS011;64015;49.392;15.582;2023-03-23T00:16:17;8.52;;;4.15;;
75437;SDS011;64015;49.392;15.582;2023-03-23T00:18:56;9.35;;;4.15;;
75437;SDS011;64015;49.392;15.582;2023-03-23T00:21:41;8.10;;;4.07;;
75437;SDS011;64015;49.392;15.582;2023-03-23T00:26:35;11.25;;;4.28;;
75437;SDS011;64015;49.392;15.582;2023-03-23T00:29:05;8.75;;;4.40;;
75437;SDS011;64015;49.392;15.582;2023-03-23T00:31:41;7.82;;;4.32;;
75437;SDS011;64015;49.392;15.582;2023-03-23T00:34:12;8.40;;;3.97;;
75437;SDS011;64015;49.392;15.582;2023-03-23T00:36:45;10.20;;;4.28;;
75437;SDS011;64015;49.392;15.582;2023-03-23T00:39:12;9.60;;;5.03;;
75437;SDS011;64015;49.392;15.582;2023-03-23T00:41:44;11.45;;;4.65;;
75437;SDS011;64015;49.392;15.582;2023-03-23T00:44:11;9.38;;;4.85;;
75437;SDS011;64015;49.392;15.582;2023-03-23T00:46:43;11.52;;;4.90;;
75437;SDS011;64015;49.392;15.582;2023-03-23T00:49:20;7.90;;;4.32;;
75437;SDS011;64015;49.392;15.582;2023-03-23T00:51:53;8.55;;;4.32;;
75437;SDS011;64015;49.392;15.582;2023-03-23T00:54:20;9.38;;;4.90;;
75437;SDS011;64015;49.392;15.582;2023-03-23T00:56:46;9.75;;;4.82;;
75437;SDS011;64015;49.392;15.582;2023-03-23T00:59:12;10.25;;;4.93;;
75437;SDS011;64015;49.392;15.582;2023-03-23T01:01:39;9.75;;;4.88;;
75437;SDS011;64015;49.392;15.582;2023-03-23T01:04:05;8.13;;;3.67;;
75437;SDS011;64015;49.392;15.582;2023-03-23T01:06:33;8.88;;;5.05;;
75437;SDS011;64015;49.392;15.582;2023-03-23T01:09:10;9.02;;;4.63;;
75437;SDS011;64015;49.392;15.582;2023-03-23T01:11:41;8.32;;;4.82;;
75437;SDS011;64015;49.392;15.582;2023-03-23T01:14:07;12.35;;;5.03;;
75437;SDS011;64015;49.392;15.582;2023-03-23T01:16:33;14.45;;;5.90;;
75437;SDS011;64015;49.392;15.582;2023-03-23T01:18:59;14.45;;;5.78;;
75437;SDS011;64015;49.392;15.582;2023-03-23T01:21:25;13.18;;;6.65;;
75437;SDS011;64015;49.392;15.582;2023-03-23T01:23:51;12.32;;;6.20;;
75437;SDS011;64015;49.392;15.582;2023-03-23T01:26:18;11.65;;;5.35;;
75437;SDS011;64015;49.392;15.582;2023-03-23T01:28:46;11.27;;;6.20;;
75437;SDS011;64015;49.392;15.582;2023-03-23T01:31:14;9.60;;;5.15;;
75437;SDS011;64015;49.392;15.582;2023-03-23T01:33:42;13.63;;;6.05;;
75437;SDS011;64015;49.392;15.582;2023-03-23T01:36:15;11.75;;;5.85;;
75437;SDS011;64015;49.392;15.582;2023-03-23T01:38:43;15.20;;;6.85;;
75437;SDS011;64015;49.392;15.582;2023-03-23T01:41:11;11.50;;;5.82;;
75437;SDS011;64015;49.392;15.582;2023-03-23T01:43:53;12.45;;;5.43;;
75437;SDS011;64015;49.392;15.582;2023-03-23T01:46:27;11.88;;;5.47;;
75437;SDS011;64015;49.392;15.582;2023-03-23T01:48:56;11.45;;;5.30;;
75437;SDS011;64015;49.392;15.582;2023-03-23T01:51:23;13.15;;;5.65;;
75437;SDS011;64015;49.392;15.582;2023-03-23T01:53:55;8.77;;;4.65;;
75437;SDS011;64015;49.392;15.582;2023-03-23T01:56:25;9.32;;;4.63;;
75437;SDS011;64015;49.392;15.582;2023-03-23T01:58:55;10.30;;;5.15;;
75437;SDS011;64015;49.392;15.582;2023-03-23T02:01:21;11.10;;;4.95;;
75437;SDS011;64015;49.392;15.582;2023-03-23T02:03:51;11.43;;;4.88;;
75437;SDS011;64015;49.392;15.582;2023-03-23T02:06:19;13.45;;;4.97;;
75437;SDS011;64015;49.392;15.582;2023-03-23T02:08:45;9.23;;;4.50;;
75437;SDS011;64015;49.392;15.582;2023-03-23T02:11:18;11.35;;;5.47;;
75437;SDS011;64015;49.392;15.582;2023-03-23T02:13:46;10.98;;;5.72;;
75437;SDS011;64015;49.392;15.582;2023-03-23T02:22:00;11.35;;;5.18;;
75437;SDS011;64015;49.392;15.582;2023-03-23T02:27:25;15.90;;;5.72;;
75437;SDS011;64015;49.392;15.582;2023-03-23T02:30:14;12.88;;;5.85;;
75437;SDS011;64015;49.392;15.582;2023-03-23T02:32:49;10.50;;;5.60;;
75437;SDS011;64015;49.392;15.582;2023-03-23T02:35:24;10.85;;;5.38;;
75437;SDS011;64015;49.392;15.582;2023-03-23T02:37:57;11.32;;;5.47;;
75437;SDS011;64015;49.392;15.582;2023-03-23T02:40:35;14.15;;;6.43;;
75437;SDS011;64015;49.392;15.582;2023-03-23T02:43:07;13.48;;;6.32;;
75437;SDS011;64015;49.392;15.582;2023-03-23T02:45:35;11.30;;;6.03;;
75437;SDS011;64015;49.392;15.582;2023-03-23T02:48:04;12.52;;;6.97;;
75437;SDS011;64015;49.392;15.582;2023-03-23T02:50:31;13.07;;;7.22;;
75437;SDS011;64015;49.392;15.582;2023-03-23T02:55:26;16.50;;;6.78;;
75437;SDS011;64015;49.392;15.582;2023-03-23T02:57:54;18.40;;;7.20;;
75437;SDS011;64015;49.392;15.582;2023-03-23T03:00:20;14.85;;;6.80;;
75437;SDS011;64015;49.392;15.582;2023-03-23T03:02:48;16.77;;;7.47;;
75437;SDS011;64015;49.392;15.582;2023-03-23T03:09:10;16.20;;;6.63;;
75437;SDS011;64015;49.392;15.582;2023-03-23T03:11:19;16.60;;;7.10;;
75437;SDS011;64015;49.392;15.582;2023-03-23T03:13:58;13.18;;;6.55;;
75437;SDS011;64015;49.392;15.582;2023-03-23T03:19:08;17.55;;;7.25;;
75437;SDS011;64015;49.392;15.582;2023-03-23T03:21:42;13.82;;;7.18;;
75437;SDS011;64015;49.392;15.582;2023-03-23T03:24:11;15.00;;;6.80;;
75437;SDS011;64015;49.392;15.582;2023-03-23T03:26:41;15.38;;;6.93;;
75437;SDS011;64015;49.392;15.582;2023-03-23T03:29:11;17.55;;;7.70;;
75437;SDS011;64015;49.392;15.582;2023-03-23T03:31:38;20.83;;;8.13;;
75437;SDS011;64015;49.392;15.582;2023-03-23T03:34:06;16.58;;;8.52;;
75437;SDS011;64015;49.392;15.582;2023-03-23T03:36:33;17.90;;;7.55;;
75437;SDS011;64015;49.392;15.582;2023-03-23T03:39:04;15.52;;;7.65;;
75437;SDS011;64015;49.392;15.582;2023-03-23T03:41:35;16.73;;;8.50;;
75437;SDS011;64015;49.392;15.582;2023-03-23T03:44:03;16.05;;;7.82;;
75437;SDS011;64015;49.392;15.582;2023-03-23T03:46:30;17.52;;;7.90;;
75437;SDS011;64015;49.392;15.582;2023-03-23T03:48:57;19.75;;;8.52;;
75437;SDS011;64015;49.392;15.582;2023-03-23T03:51:23;13.95;;;7.30;;
75437;SDS011;64015;49.392;15.582;2023-03-23T03:56:16;20.95;;;7.53;;
75437;SDS011;64015;49.392;15.582;2023-03-23T03:58:42;16.75;;;6.95;;
75437;SDS011;64015;49.392;15.582;2023-03-23T04:01:08;14.65;;;7.50;;
75437;SDS011;64015;49.392;15.582;2023-03-23T04:03:35;15.27;;;7.20;;
75437;SDS011;64015;49.392;15.582;2023-03-23T04:06:02;14.55;;;6.70;;
75437;SDS011;64015;49.392;15.582;2023-03-23T04:08:28;17.42;;;7.40;;
75437;SDS011;64015;49.392;15.582;2023-03-23T04:10:54;14.32;;;7.88;;
75437;SDS011;64015;49.392;15.582;2023-03-23T04:13:21;18.30;;;7.10;;
75437;SDS011;64015;49.392;15.582;2023-03-23T04:15:46;14.40;;;6.93;;
75437;SDS011;64015;49.392;15.582;2023-03-23T04:18:14;13.98;;;6.60;;
75437;SDS011;64015;49.392;15.582;2023-03-23T04:20:45;15.38;;;7.18;;
75437;SDS011;64015;49.392;15.582;2023-03-23T04:23:13;12.23;;;6.75;;
75437;SDS011;64015;49.392;15.582;2023-03-23T04:25:39;13.00;;;6.32;;
75437;SDS011;64015;49.392;15.582;2023-03-23T04:28:07;13.63;;;5.90;;
75437;SDS011;64015;49.392;15.582;2023-03-23T04:30:35;14.88;;;6.63;;
75437;SDS011;64015;49.392;15.582;2023-03-23T04:33:01;15.80;;;6.95;;
75437;SDS011;64015;49.392;15.582;2023-03-23T04:35:27;15.00;;;7.75;;
75437;SDS011;64015;49.392;15.582;2023-03-23T04:37:54;13.43;;;6.50;;
75437;SDS011;64015;49.392;15.582;2023-03-23T04:40:21;13.15;;;6.78;;
75437;SDS011;64015;49.392;15.582;2023-03-23T04:42:47;13.52;;;6.25;;
75437;SDS011;64015;49.392;15.582;2023-03-23T04:45:15;13.63;;;6.15;;
75437;SDS011;64015;49.392;15.582;2023-03-23T04:47:47;13.32;;;6.43;;
75437;SDS011;64015;49.392;15.582;2023-03-23T04:50:19;15.15;;;6.97;;
75437;SDS011;64015;49.392;15.582;2023-03-23T04:52:49;14.52;;;7.05;;
75437;SDS011;64015;49.392;15.582;2023-03-23T04:55:16;13.80;;;7.05;;
75437;SDS011;64015;49.392;15.582;2023-03-23T04:57:43;17.48;;;7.22;;
75437;SDS011;64015;49.392;15.582;2023-03-23T05:00:09;17.23;;;7.30;;
75437;SDS011;64015;49.392;15.582;2023-03-23T05:02:42;16.48;;;7.28;;
75437;SDS011;64015;49.392;15.582;2023-03-23T05:05:09;22.33;;;7.50;;
75437;SDS011;64015;49.392;15.582;2023-03-23T05:07:37;16.77;;;6.82;;
75437;SDS011;64015;49.392;15.582;2023-03-23T05:10:04;14.95;;;7.22;;
75437;SDS011;64015;49.392;15.582;2023-03-23T05:12:31;14.07;;;6.90;;
75437;SDS011;64015;49.392;15.582;2023-03-23T05:14:57;15.18;;;6.97;;
75437;SDS011;64015;49.392;15.582;2023-03-23T05:17:23;14.43;;;6.18;;
75437;SDS011;64015;49.392;15.582;2023-03-23T05:19:50;15.15;;;6.82;;
75437;SDS011;64015;49.392;15.582;2023-03-23T05:22:16;15.25;;;6.45;;
75437;SDS011;64015;49.392;15.582;2023-03-23T05:24:42;14.98;;;7.03;;
75437;SDS011;64015;49.392;15.582;2023-03-23T05:27:11;17.10;;;6.70;;
75437;SDS011;64015;49.392;15.582;2023-03-23T05:29:37;14.35;;;6.22;;
75437;SDS011;64015;49.392;15.582;2023-03-23T05:32:06;16.88;;;7.65;;
75437;SDS011;64015;49.392;15.582;2023-03-23T05:34:33;15.63;;;6.65;;
75437;SDS011;64015;49.392;15.582;2023-03-23T05:37:00;16.75;;;6.47;;
75437;SDS011;64015;49.392;15.582;2023-03-23T05:39:28;17.30;;;7.30;;
75437;SDS011;64015;49.392;15.582;2023-03-23T05:41:55;20.05;;;7.18;;
75437;SDS011;64015;49.392;15.582;2023-03-23T05:44:21;19.98;;;7.18;;
75437;SDS011;64015;49.392;15.582;2023-03-23T05:46:47;15.80;;;7.43;;
75437;SDS011;64015;49.392;15.582;2023-03-23T05:49:13;13.07;;;6.93;;
75437;SDS011;64015;49.392;15.582;2023-03-23T05:51:45;17.10;;;7.32;;
75437;SDS011;64015;49.392;15.582;2023-03-23T05:54:15;18.67;;;9.23;;
75437;SDS011;64015;49.392;15.582;2023-03-23T05:56:41;28.73;;;11.70;;
75437;SDS011;64015;49.392;15.582;2023-03-23T05:59:08;23.45;;;10.02;;
75437;SDS011;64015;49.392;15.582;2023-03-23T06:01:35;14.30;;;7.22;;
75437;SDS011;64015;49.392;15.582;2023-03-23T06:04:01;15.80;;;7.57;;
75437;SDS011;64015;49.392;15.582;2023-03-23T06:06:28;15.32;;;7.47;;
75437;SDS011;64015;49.392;15.582;2023-03-23T06:08:56;15.82;;;7.47;;
75437;SDS011;64015;49.392;15.582;2023-03-23T06:11:31;25.20;;;7.72;;
75437;SDS011;64015;49.392;15.582;2023-03-23T06:13:56;14.88;;;8.65;;
75437;SDS011;64015;49.392;15.582;2023-03-23T06:16:23;14.73;;;8.68;;
75437;SDS011;64015;49.392;15.582;2023-03-23T06:18:49;16.27;;;8.20;;
75437;SDS011;64015;49.392;15.582;2023-03-23T06:21:15;14.40;;;7.57;;
75437;SDS011;64015;49.392;15.582;2023-03-23T06:23:46;20.13;;;8.70;;
75437;SDS011;64015;49.392;15.582;2023-03-23T06:26:13;15.15;;;6.82;;
75437;SDS011;64015;49.392;15.582;2023-03-23T06:28:43;18.77;;;7.97;;
75437;SDS011;64015;49.392;15.582;2023-03-23T06:31:09;12.25;;;6.07;;
75437;SDS011;64015;49.392;15.582;2023-03-23T06:33:36;12.88;;;6.05;;
75437;SDS011;64015;49.392;15.582;2023-03-23T06:36:03;12.05;;;5.28;;
75437;SDS011;64015;49.392;15.582;2023-03-23T06:38:30;11.82;;;5.38;;
75437;SDS011;64015;49.392;15.582;2023-03-23T06:40:56;10.55;;;5.95;;
75437;SDS011;64015;49.392;15.582;2023-03-23T06:43:23;14.23;;;7.03;;
75437;SDS011;64015;49.392;15.582;2023-03-23T06:45:49;12.32;;;5.97;;
75437;SDS011;64015;49.392;15.582;2023-03-23T06:48:16;14.30;;;6.45;;
75437;SDS011;64015;49.392;15.582;2023-03-23T06:50:46;12.43;;;5.10;;
75437;SDS011;64015;49.392;15.582;2023-03-23T06:53:12;12.38;;;4.63;;
75437;SDS011;64015;49.392;15.582;2023-03-23T06:55:38;9.75;;;4.40;;
75437;SDS011;64015;49.392;15.582;2023-03-23T06:58:04;12.00;;;5.78;;
75437;SDS011;64015;49.392;15.582;2023-03-23T07:00:32;9.70;;;3.28;;
75437;SDS011;64015;49.392;15.582;2023-03-23T07:02:58;8.90;;;4.03;;
75437;SDS011;64015;49.392;15.582;2023-03-23T07:05:24;10.55;;;4.03;;
75437;SDS011;64015;49.392;15.582;2023-03-23T07:07:50;8.45;;;3.63;;
75437;SDS011;64015;49.392;15.582;2023-03-23T07:10:16;9.93;;;3.72;;
75437;SDS011;64015;49.392;15.582;2023-03-23T07:12:42;8.35;;;4.15;;
75437;SDS011;64015;49.392;15.582;2023-03-23T07:15:08;8.32;;;3.83;;
75437;SDS011;64015;49.392;15.582;2023-03-23T07:17:36;9.23;;;4.15;;
75437;SDS011;64015;49.392;15.582;2023-03-23T07:20:03;11.27;;;3.53;;
75437;SDS011;64015;49.392;15.582;2023-03-23T07:22:30;9.40;;;3.95;;
75437;SDS011;64015;49.392;15.582;2023-03-23T07:24:56;9.85;;;4.10;;
75437;SDS011;64015;49.392;15.582;2023-03-23T07:27:22;9.80;;;4.70;;
75437;SDS011;64015;49.392;15.582;2023-03-23T07:29:48;7.78;;;3.85;;
75437;SDS011;64015;49.392;15.582;2023-03-23T07:32:13;10.05;;;4.85;;
75437;SDS011;64015;49.392;15.582;2023-03-23T07:34:39;8.70;;;4.10;;
75437;SDS011;64015;49.392;15.582;2023-03-23T07:37:06;11.45;;;4.40;;
75437;SDS011;64015;49.392;15.582;2023-03-23T07:39:33;8.60;;;4.22;;
75437;SDS011;64015;49.392;15.582;2023-03-23T07:41:58;10.88;;;4.78;;
75437;SDS011;64015;49.392;15.582;2023-03-23T07:44:24;9.05;;;4.30;;
75437;SDS011;64015;49.392;15.582;2023-03-23T07:46:50;10.20;;;4.18;;
75437;SDS011;64015;49.392;15.582;2023-03-23T07:49:16;12.13;;;4.50;;
75437;SDS011;64015;49.392;15.582;2023-03-23T07:51:43;10.73;;;4.30;;
75437;SDS011;64015;49.392;15.582;2023-03-23T07:56:36;8.65;;;3.85;;
75437;SDS011;64015;49.392;15.582;2023-03-23T07:59:05;9.25;;;3.47;;
75437;SDS011;64015;49.392;15.582;2023-03-23T08:01:32;9.75;;;4.00;;
75437;SDS011;64015;49.392;15.582;2023-03-23T08:03:58;10.95;;;4.78;;
75437;SDS011;64015;49.392;15.582;2023-03-23T08:06:25;8.32;;;3.75;;
75437;SDS011;64015;49.392;15.582;2023-03-23T08:11:18;9.55;;;4.28;;
75437;SDS011;64015;49.392;15.582;2023-03-23T08:13:44;8.52;;;4.13;;
75437;SDS011;64015;49.392;15.582;2023-03-23T08:16:11;8.43;;;3.28;;
75437;SDS011;64015;49.392;15.582;2023-03-23T08:18:37;9.15;;;3.70;;
75437;SDS011;64015;49.392;15.582;2023-03-23T08:21:04;8.05;;;3.38;;
75437;SDS011;64015;49.392;15.582;2023-03-23T08:23:34;8.68;;;3.58;;
75437;SDS011;64015;49.392;15.582;2023-03-23T08:26:02;9.10;;;3.10;;
75437;SDS011;64015;49.392;15.582;2023-03-23T08:28:30;8.65;;;3.53;;
75437;SDS011;64015;49.392;15.582;2023-03-23T08:30:55;7.15;;;3.42;;
75437;SDS011;64015;49.392;15.582;2023-03-23T08:33:22;4.93;;;2.00;;
75437;SDS011;64015;49.392;15.582;2023-03-23T08:35:56;8.38;;;3.20;;
75437;SDS011;64015;49.392;15.582;2023-03-23T08:38:23;6.07;;;2.40;;
75437;SDS011;64015;49.392;15.582;2023-03-23T08:40:49;6.80;;;2.42;;
75437;SDS011;64015;49.392;15.582;2023-03-23T08:43:17;6.45;;;3.00;;
75437;SDS011;64015;49.392;15.582;2023-03-23T08:45:43;4.97;;;2.30;;
75437;SDS011;64015;49.392;15.582;2023-03-23T08:48:09;4.85;;;2.10;;
75437;SDS011;64015;49.392;15.582;2023-03-23T08:50:36;5.43;;;2.60;;
75437;SDS011;64015;49.392;15.582;2023-03-23T08:53:02;6.65;;;2.70;;
75437;SDS011;64015;49.392;15.582;2023-03-23T08:55:28;5.00;;;2.67;;
75437;SDS011;64015;49.392;15.582;2023-03-23T08:57:54;6.97;;;3.05;;
75437;SDS011;64015;49.392;15.582;2023-03-23T09:00:21;7.90;;;2.60;;
75437;SDS011;64015;49.392;15.582;2023-03-23T09:02:50;5.60;;;2.25;;
75437;SDS011;64015;49.392;15.582;2023-03-23T09:05:19;5.78;;;1.98;;
75437;SDS011;64015;49.392;15.582;2023-03-23T09:07:48;2.83;;;1.30;;
75437;SDS011;64015;49.392;15.582;2023-03-23T09:10:15;3.60;;;1.65;;
75437;SDS011;64015;49.392;15.582;2023-03-23T09:12:43;3.38;;;0.98;;
75437;SDS011;64015;49.392;15.582;2023-03-23T09:15:11;3.95;;;1.50;;
75437;SDS011;64015;49.392;15.582;2023-03-23T09:17:46;3.08;;;1.30;;
75437;SDS011;64015;49.392;15.582;2023-03-23T09:20:15;3.88;;;2.00;;
75437;SDS011;64015;49.392;15.582;2023-03-23T09:22:45;3.60;;;1.70;;
75437;SDS011;64015;49.392;15.582;2023-03-23T09:25:15;2.47;;;0.95;;
75437;SDS011;64015;49.392;15.582;2023-03-23T09:27:44;2.53;;;1.30;;
75437;SDS011;64015;49.392;15.582;2023-03-23T09:30:12;2.65;;;1.10;;
75437;SDS011;64015;49.392;15.582;2023-03-23T09:32:39;3.33;;;1.40;;
75437;SDS011;64015;49.392;15.582;2023-03-23T09:35:08;3.03;;;1.48;;
75437;SDS011;64015;49.392;15.582;2023-03-23T09:37:35;4.72;;;2.53;;
75437;SDS011;64015;49.392;15.582;2023-03-23T09:40:05;5.10;;;1.48;;
75437;SDS011;64015;49.392;15.582;2023-03-23T09:42:39;2.60;;;0.75;;
75437;SDS011;64015;49.392;15.582;2023-03-23T09:45:31;2.60;;;1.23;;
75437;SDS011;64015;49.392;15.582;2023-03-23T09:50:58;2.70;;;0.80;;
75437;SDS011;64015;49.392;15.582;2023-03-23T09:53:32;2.22;;;0.80;;
75437;SDS011;64015;49.392;15.582;2023-03-23T09:56:08;3.05;;;1.15;;
75437;SDS011;64015;49.392;15.582;2023-03-23T09:59:24;2.17;;;0.95;;
75437;SDS011;64015;49.392;15.582;2023-03-23T10:01:32;2.15;;;0.80;;
75437;SDS011;64015;49.392;15.582;2023-03-23T10:04:12;2.53;;;0.60;;
75437;SDS011;64015;49.392;15.582;2023-03-23T10:06:45;1.83;;;0.85;;
75437;SDS011;64015;49.392;15.582;2023-03-23T10:09:14;2.85;;;1.10;;
75437;SDS011;64015;49.392;15.582;2023-03-23T10:17:13;2.17;;;0.90;;
75437;SDS011;64015;49.392;15.582;2023-03-23T10:19:46;1.83;;;0.82;;
75437;SDS011;64015;49.392;15.582;2023-03-23T10:22:21;2.92;;;0.90;;
75437;SDS011;64015;49.392;15.582;2023-03-23T10:28:03;5.82;;;1.38;;
75437;SDS011;64015;49.392;15.582;2023-03-23T10:30:40;2.53;;;1.33;;
75437;SDS011;64015;49.392;15.582;2023-03-23T10:33:29;2.80;;;1.00;;
75437;SDS011;64015;49.392;15.582;2023-03-23T10:36:07;2.60;;;0.95;;
75437;SDS011;64015;49.392;15.582;2023-03-23T10:38:45;5.38;;;1.20;;
75437;SDS011;64015;49.392;15.582;2023-03-23T10:41:16;3.85;;;0.95;;
75437;SDS011;64015;49.392;15.582;2023-03-23T10:43:44;3.17;;;1.00;;
75437;SDS011;64015;49.392;15.582;2023-03-23T10:55:04;2.15;;;0.90;;
75437;SDS011;64015;49.392;15.582;2023-03-23T10:57:35;3.45;;;1.50;;
75437;SDS011;64015;49.392;15.582;2023-03-23T11:00:04;2.88;;;0.93;;
75437;SDS011;64015;49.392;15.582;2023-03-23T11:02:39;2.42;;;0.68;;
75437;SDS011;64015;49.392;15.582;2023-03-23T11:07:41;1.65;;;0.85;;
75437;SDS011;64015;49.392;15.582;2023-03-23T11:10:19;1.52;;;0.60;;
75437;SDS011;64015;49.392;15.582;2023-03-23T11:12:49;4.57;;;1.10;;
75437;SDS011;64015;49.392;15.582;2023-03-23T11:18:05;3.08;;;1.50;;
75437;SDS011;64015;49.392;15.582;2023-03-23T11:20:49;1.90;;;0.98;;
75437;SDS011;64015;49.392;15.582;2023-03-23T11:23:20;1.92;;;0.55;;
75437;SDS011;64015;49.392;15.582;2023-03-23T11:28:36;2.15;;;0.68;;
75437;SDS011;64015;49.392;15.582;2023-03-23T11:31:09;2.15;;;0.90;;
75437;SDS011;64015;49.392;15.582;2023-03-23T11:36:13;2.60;;;0.90;;
75437;SDS011;64015;49.392;15.582;2023-03-23T11:38:40;3.00;;;1.15;;
75437;SDS011;64015;49.392;15.582;2023-03-23T11:41:11;2.47;;;0.63;;
75437;SDS011;64015;49.392;15.582;2023-03-23T11:43:44;2.47;;;0.95;;
75437;SDS011;64015;49.392;15.582;2023-03-23T11:46:24;1.50;;;0.90;;
75437;SDS011;64015;49.392;15.582;2023-03-23T11:49:04;3.25;;;1.17;;
75437;SDS011;64015;49.392;15.582;2023-03-23T11:54:26;1.98;;;0.90;;
75437;SDS011;64015;49.392;15.582;2023-03-23T11:56:55;2.20;;;0.57;;
75437;SDS011;64015;49.392;15.582;2023-03-23T12:01:59;3.28;;;1.02;;
75437;SDS011;64015;49.392;15.582;2023-03-23T12:07:55;4.78;;;1.25;;
75437;SDS011;64015;49.392;15.582;2023-03-23T12:15:43;2.92;;;1.02;;
75437;SDS011;64015;49.392;15.582;2023-03-23T12:18:22;3.50;;;1.10;;
75437;SDS011;64015;49.392;15.582;2023-03-23T12:29:31;2.20;;;1.02;;
75437;SDS011;64015;49.392;15.582;2023-03-23T12:43:32;3.17;;;1.05;;
75437;SDS011;64015;49.392;15.582;2023-03-23T12:49:02;2.05;;;0.88;;
75437;SDS011;64015;49.392;15.582;2023-03-23T12:51:44;4.22;;;1.25;;
75437;SDS011;64015;49.392;15.582;2023-03-23T12:57:07;3.10;;;0.90;;
75437;SDS011;64015;49.392;15.582;2023-03-23T13:02:22;3.78;;;0.90;;
75437;SDS011;64015;49.392;15.582;2023-03-23T13:05:26;3.20;;;1.13;;
75437;SDS011;64015;49.392;15.582;2023-03-23T13:07:59;2.35;;;1.27;;
75437;SDS011;64015;49.392;15.582;2023-03-23T13:10:36;3.08;;;0.80;;
75437;SDS011;64015;49.392;15.582;2023-03-23T13:13:14;2.40;;;1.00;;
75437;SDS011;64015;49.392;15.582;2023-03-23T13:15:47;2.42;;;1.10;;
75437;SDS011;64015;49.392;15.582;2023-03-23T13:21:09;3.78;;;0.90;;
75437;SDS011;64015;49.392;15.582;2023-03-23T13:23:45;4.82;;;0.95;;
75437;SDS011;64015;49.392;15.582;2023-03-23T13:26:19;1.92;;;0.82;;
75437;SDS011;64015;49.392;15.582;2023-03-23T13:36:43;2.20;;;1.02;;
75437;SDS011;64015;49.392;15.582;2023-03-23T13:39:36;2.70;;;1.30;;
75437;SDS011;64015;49.392;15.582;2023-03-23T13:49:58;2.00;;;0.90;;
75437;SDS011;64015;49.392;15.582;2023-03-23T13:57:52;1.83;;;0.93;;
75437;SDS011;64015;49.392;15.582;2023-03-23T14:00:33;3.05;;;0.90;;
75437;SDS011;64015;49.392;15.582;2023-03-23T14:06:02;2.75;;;1.15;;
75437;SDS011;64015;49.392;15.582;2023-03-23T14:08:50;2.38;;;1.33;;
75437;SDS011;64015;49.392;15.582;2023-03-23T14:11:23;2.83;;;1.45;;
75437;SDS011;64015;49.392;15.582;2023-03-23T14:16:24;2.15;;;1.00;;
75437;SDS011;64015;49.392;15.582;2023-03-23T14:19:00;5.78;;;1.08;;
75437;SDS011;64015;49.392;15.582;2023-03-23T14:23:53;3.00;;;1.20;;
75437;SDS011;64015;49.392;15.582;2023-03-23T14:26:21;2.47;;;0.90;;
75437;SDS011;64015;49.392;15.582;2023-03-23T14:28:50;8.80;;;3.28;;
75437;SDS011;64015;49.392;15.582;2023-03-23T14:31:26;2.20;;;1.00;;
75437;SDS011;64015;49.392;15.582;2023-03-23T14:33:53;1.95;;;1.00;;
75437;SDS011;64015;49.392;15.582;2023-03-23T14:41:37;4.18;;;1.10;;
75437;SDS011;64015;49.392;15.582;2023-03-23T14:44:05;2.10;;;0.75;;
75437;SDS011;64015;49.392;15.582;2023-03-23T14:46:34;2.47;;;1.05;;
75437;SDS011;64015;49.392;15.582;2023-03-23T14:49:04;2.83;;;0.80;;
75437;SDS011;64015;49.392;15.582;2023-03-23T14:51:31;3.45;;;1.33;;
75437;SDS011;64015;49.392;15.582;2023-03-23T14:53:59;2.72;;;0.98;;
75437;SDS011;64015;49.392;15.582;2023-03-23T14:56:31;2.90;;;1.20;;
75437;SDS011;64015;49.392;15.582;2023-03-23T14:59:05;1.90;;;0.75;;
75437;SDS011;64015;49.392;15.582;2023-03-23T15:01:34;3.90;;;1.00;;
75437;SDS011;64015;49.392;15.582;2023-03-23T15:06:48;3.08;;;1.00;;
75437;SDS011;64015;49.392;15.582;2023-03-23T15:09:20;1.88;;;1.05;;
75437;SDS011;64015;49.392;15.582;2023-03-23T15:11:52;2.40;;;1.10;;
75437;SDS011;64015;49.392;15.582;2023-03-23T15:14:34;2.78;;;1.23;;
75437;SDS011;64015;49.392;15.582;2023-03-23T15:17:23;3.75;;;1.40;;
75437;SDS011;64015;49.392;15.582;2023-03-23T15:19:51;1.95;;;0.73;;
75437;SDS011;64015;49.392;15.582;2023-03-23T15:22:26;3.00;;;1.17;;
75437;SDS011;64015;49.392;15.582;2023-03-23T15:25:10;6.53;;;1.10;;
75437;SDS011;64015;49.392;15.582;2023-03-23T15:27:41;2.55;;;0.95;;
75437;SDS011;64015;49.392;15.582;2023-03-23T15:32:47;2.55;;;1.35;;
75437;SDS011;64015;49.392;15.582;2023-03-23T15:35:16;2.40;;;1.50;;
75437;SDS011;64015;49.392;15.582;2023-03-23T15:38:06;3.78;;;1.10;;
75437;SDS011;64015;49.392;15.582;2023-03-23T15:40:33;3.03;;;1.05;;
75437;SDS011;64015;49.392;15.582;2023-03-23T15:45:56;4.00;;;1.52;;
75437;SDS011;64015;49.392;15.582;2023-03-23T15:48:45;2.90;;;1.00;;
75437;SDS011;64015;49.392;15.582;2023-03-23T15:51:16;2.25;;;1.00;;
75437;SDS011;64015;49.392;15.582;2023-03-23T15:53:44;4.72;;;1.90;;
75437;SDS011;64015;49.392;15.582;2023-03-23T15:56:11;6.38;;;2.95;;
75437;SDS011;64015;49.392;15.582;2023-03-23T15:58:38;5.25;;;1.55;;
75437;SDS011;64015;49.392;15.582;2023-03-23T16:01:05;3.00;;;1.38;;
75437;SDS011;64015;49.392;15.582;2023-03-23T16:03:44;3.15;;;1.63;;
75437;SDS011;64015;49.392;15.582;2023-03-23T16:06:13;4.00;;;1.17;;
75437;SDS011;64015;49.392;15.582;2023-03-23T16:08:41;6.03;;;2.00;;
75437;SDS011;64015;49.392;15.582;2023-03-23T16:11:10;4.15;;;1.27;;
75437;SDS011;64015;49.392;15.582;2023-03-23T16:13:37;6.22;;;1.30;;
75437;SDS011;64015;49.392;15.582;2023-03-23T16:16:04;4.10;;;1.10;;
75437;SDS011;64015;49.392;15.582;2023-03-23T16:18:32;6.57;;;1.20;;
75437;SDS011;64015;49.392;15.582;2023-03-23T16:20:58;2.45;;;1.10;;
75437;SDS011;64015;49.392;15.582;2023-03-23T16:23:25;3.10;;;1.02;;
75437;SDS011;64015;49.392;15.582;2023-03-23T16:25:51;4.32;;;1.40;;
75437;SDS011;64015;49.392;15.582;2023-03-23T16:28:17;5.32;;;1.63;;
75437;SDS011;64015;49.392;15.582;2023-03-23T16:30:45;3.05;;;1.20;;
75437;SDS011;64015;49.392;15.582;2023-03-23T16:33:12;5.03;;;2.20;;
75437;SDS011;64015;49.392;15.582;2023-03-23T16:35:38;3.20;;;1.67;;
75437;SDS011;64015;49.392;15.582;2023-03-23T16:38:05;4.10;;;1.70;;
75437;SDS011;64015;49.392;15.582;2023-03-23T16:40:31;3.08;;;0.90;;
75437;SDS011;64015;49.392;15.582;2023-03-23T16:42:57;3.13;;;1.60;;
75437;SDS011;64015;49.392;15.582;2023-03-23T16:45:24;3.45;;;1.30;;
75437;SDS011;64015;49.392;15.582;2023-03-23T16:47:51;3.92;;;1.50;;
75437;SDS011;64015;49.392;15.582;2023-03-23T16:50:19;4.13;;;1.65;;
75437;SDS011;64015;49.392;15.582;2023-03-23T16:52:45;4.07;;;1.58;;
75437;SDS011;64015;49.392;15.582;2023-03-23T16:55:15;5.13;;;1.98;;
75437;SDS011;64015;49.392;15.582;2023-03-23T16:57:41;7.80;;;1.58;;
75437;SDS011;64015;49.392;15.582;2023-03-23T17:00:08;3.55;;;1.83;;
75437;SDS011;64015;49.392;15.582;2023-03-23T17:02:39;5.13;;;1.70;;
75437;SDS011;64015;49.392;15.582;2023-03-23T17:05:07;4.75;;;1.90;;
75437;SDS011;64015;49.392;15.582;2023-03-23T17:07:35;4.57;;;2.55;;
75437;SDS011;64015;49.392;15.582;2023-03-23T17:10:02;3.90;;;1.73;;